Buckshaw Village, United Kingdom

5:17 PM GMT on November 23, 2014 (GMT +0000)
Leyland | Change Station
CLOSE
Current Station
Personal Weather Station
Location: Leyland, LANCASHIRE
Elevation: 180 ft
Nearby Weather Stations

Elev 180 ft 53.69 °N, 2.68 °W | Updated 1 day ago

Partly Cloudy
Partly Cloudy
41 °F
Feels Like 41 °F
N
8
Wind Variable Wind from WNW
Gusts mph

Today
High -- | Low -- °F
--% Chance of Precip.
Yesterday
High -- | Low -- °F
Precip. -- in
7:51 AM 4:02 PM
New Moon, 2% visible
Pressure 30.09 in
Visibility 6.2 miles
Clouds Few 3000 ft
Dew Point 37 °F
Humidity 85%
Rainfall 0.21 in
Snow Depth Not available.
UV 0 out of 12
Pollen Not available.
Air Quality Not available.
Flu Activity Not available.
METAR EGCC 231650Z VRB03KT 9999 FEW030 06/03 Q1019 NOSIG

More Conditions Fewer Conditions

Pressure 30.09 in
Visibility 6.2 miles
Clouds Few 3000 ft
Dew Point 37 °F
Humidity 85%
Rainfall 0.21 in
Snow Depth Not available.
UV 0 out of 12
Pollen Not available.
Air Quality Not available.
Flu Activity Not available.
METAR EGCC 231650Z VRB03KT 9999 FEW030 06/03 Q1019 NOSIG

More Conditions Fewer Conditions

10-Day Weather Forecast

Almanac

Astronomy

Nov. 23, 2014 Rise Set
Actual Time
Civil Twilight
Nautical Twilight
Astronomical Twilight
Moon
Length of Visible Light
Length of Day
Tomorrow will be .
, % of the Moon is Illuminated

Today's Extremes

Country Highs Country Lows

Community

WunderPhotos

Upload Photos

1,773,104 photos uploaded!

WunderBlogs® & News

Nearby

Air Quality

  Air Quality AQ Index Pollutant
Not available.

Snow Depth

Station Depth Elevation

Earthquake Activity

City Distance Mag. Time & Date
Minimum magnitude displayed is 2.5.

Coastal Water Temperatures

Place Temperature

Nearby Weather Stations